sensor_id;sensor_type;location;lat;lon;timestamp;temperature;humidity
8475;DHT22;4274;52.012;8.448;2022-08-24T00:02:19;21.90;87.50
8475;DHT22;4274;52.012;8.448;2022-08-24T00:04:45;21.90;87.70
8475;DHT22;4274;52.012;8.448;2022-08-24T00:07:12;21.90;87.90
8475;DHT22;4274;52.012;8.448;2022-08-24T00:09:38;21.80;88.00
8475;DHT22;4274;52.012;8.448;2022-08-24T00:12:04;21.80;88.30
8475;DHT22;4274;52.012;8.448;2022-08-24T00:14:29;21.80;88.70
8475;DHT22;4274;52.012;8.448;2022-08-24T00:16:57;21.70;88.60
8475;DHT22;4274;52.012;8.448;2022-08-24T00:19:23;21.70;88.70
8475;DHT22;4274;52.012;8.448;2022-08-24T00:21:48;21.70;88.80
8475;DHT22;4274;52.012;8.448;2022-08-24T00:24:15;21.60;88.80
8475;DHT22;4274;52.012;8.448;2022-08-24T00:26:41;21.60;88.90
8475;DHT22;4274;52.012;8.448;2022-08-24T00:29:07;21.60;89.00
8475;DHT22;4274;52.012;8.448;2022-08-24T00:31:32;21.60;89.00
8475;DHT22;4274;52.012;8.448;2022-08-24T00:33:58;21.50;89.00
8475;DHT22;4274;52.012;8.448;2022-08-24T00:36:24;21.50;89.20
8475;DHT22;4274;52.012;8.448;2022-08-24T00:38:50;21.50;89.30
8475;DHT22;4274;52.012;8.448;2022-08-24T00:41:16;21.50;89.40
8475;DHT22;4274;52.012;8.448;2022-08-24T00:44:09;21.40;89.40
8475;DHT22;4274;52.012;8.448;2022-08-24T00:52:10;21.30;89.80
8475;DHT22;4274;52.012;8.448;2022-08-24T00:54:40;21.30;90.00
8475;DHT22;4274;52.012;8.448;2022-08-24T00:57:08;21.30;90.00
8475;DHT22;4274;52.012;8.448;2022-08-24T00:59:46;21.30;90.10
8475;DHT22;4274;52.012;8.448;2022-08-24T01:02:17;21.30;90.00
8475;DHT22;4274;52.012;8.448;2022-08-24T01:04:48;21.30;90.10
8475;DHT22;4274;52.012;8.448;2022-08-24T01:07:16;21.20;90.10
8475;DHT22;4274;52.012;8.448;2022-08-24T01:09:42;21.20;90.10
8475;DHT22;4274;52.012;8.448;2022-08-24T01:12:08;21.20;90.20
8475;DHT22;4274;52.012;8.448;2022-08-24T01:14:35;21.20;90.20
8475;DHT22;4274;52.012;8.448;2022-08-24T01:17:01;21.20;90.20
8475;DHT22;4274;52.012;8.448;2022-08-24T01:19:49;21.20;90.20
8475;DHT22;4274;52.012;8.448;2022-08-24T01:22:49;21.20;90.30
8475;DHT22;4274;52.012;8.448;2022-08-24T01:25:11;21.20;90.30
8475;DHT22;4274;52.012;8.448;2022-08-24T01:27:37;21.10;90.40
8475;DHT22;4274;52.012;8.448;2022-08-24T01:30:07;21.10;90.40
8475;DHT22;4274;52.012;8.448;2022-08-24T01:32:33;21.10;90.40
8475;DHT22;4274;52.012;8.448;2022-08-24T01:34:59;21.10;90.50
8475;DHT22;4274;52.012;8.448;2022-08-24T01:37:25;21.10;90.50
8475;DHT22;4274;52.012;8.448;2022-08-24T01:39:54;21.10;90.50
8475;DHT22;4274;52.012;8.448;2022-08-24T01:42:20;21.00;90.50
8475;DHT22;4274;52.012;8.448;2022-08-24T01:44:46;21.10;90.50
8475;DHT22;4274;52.012;8.448;2022-08-24T01:47:13;21.10;90.50
8475;DHT22;4274;52.012;8.448;2022-08-24T01:49:45;21.10;90.50
8475;DHT22;4274;52.012;8.448;2022-08-24T01:52:17;21.10;90.50
8475;DHT22;4274;52.012;8.448;2022-08-24T01:54:44;21.10;90.50
8475;DHT22;4274;52.012;8.448;2022-08-24T01:57:10;21.10;90.50
8475;DHT22;4274;52.012;8.448;2022-08-24T01:59:36;21.10;90.50
8475;DHT22;4274;52.012;8.448;2022-08-24T02:02:08;21.10;90.60
8475;DHT22;4274;52.012;8.448;2022-08-24T02:04:35;21.10;90.50
8475;DHT22;4274;52.012;8.448;2022-08-24T02:07:01;21.10;90.60
8475;DHT22;4274;52.012;8.448;2022-08-24T02:09:26;21.00;90.60
8475;DHT22;4274;52.012;8.448;2022-08-24T02:11:52;21.00;90.60
8475;DHT22;4274;52.012;8.448;2022-08-24T02:14:19;21.00;90.60
8475;DHT22;4274;52.012;8.448;2022-08-24T02:16:45;21.00;90.60
8475;DHT22;4274;52.012;8.448;2022-08-24T02:19:11;21.00;90.60
8475;DHT22;4274;52.012;8.448;2022-08-24T02:21:36;21.00;90.60
8475;DHT22;4274;52.012;8.448;2022-08-24T02:24:03;21.00;90.60
8475;DHT22;4274;52.012;8.448;2022-08-24T02:26:28;20.90;90.70
8475;DHT22;4274;52.012;8.448;2022-08-24T02:28:54;21.00;90.70
8475;DHT22;4274;52.012;8.448;2022-08-24T02:31:20;21.00;90.70
8475;DHT22;4274;52.012;8.448;2022-08-24T02:33:45;21.00;90.70
8475;DHT22;4274;52.012;8.448;2022-08-24T02:36:12;20.90;90.70
8475;DHT22;4274;52.012;8.448;2022-08-24T02:38:38;20.90;90.70
8475;DHT22;4274;52.012;8.448;2022-08-24T02:41:04;20.90;90.70
8475;DHT22;4274;52.012;8.448;2022-08-24T02:43:30;21.00;90.70
8475;DHT22;4274;52.012;8.448;2022-08-24T02:45:56;21.00;90.70
8475;DHT22;4274;52.012;8.448;2022-08-24T02:48:21;21.00;90.70
8475;DHT22;4274;52.012;8.448;2022-08-24T02:50:49;21.00;90.70
8475;DHT22;4274;52.012;8.448;2022-08-24T02:53:17;21.00;90.70
8475;DHT22;4274;52.012;8.448;2022-08-24T02:55:44;21.00;90.70
8475;DHT22;4274;52.012;8.448;2022-08-24T02:58:11;21.00;90.80
8475;DHT22;4274;52.012;8.448;2022-08-24T03:00:38;20.90;90.70
8475;DHT22;4274;52.012;8.448;2022-08-24T03:03:05;20.90;90.80
8475;DHT22;4274;52.012;8.448;2022-08-24T03:05:32;20.90;90.80
8475;DHT22;4274;52.012;8.448;2022-08-24T03:07:57;20.90;90.90
8475;DHT22;4274;52.012;8.448;2022-08-24T03:10:23;20.90;90.80
8475;DHT22;4274;52.012;8.448;2022-08-24T03:12:50;20.90;90.80
8475;DHT22;4274;52.012;8.448;2022-08-24T03:15:17;20.90;90.80
8475;DHT22;4274;52.012;8.448;2022-08-24T03:17:43;20.90;90.90
8475;DHT22;4274;52.012;8.448;2022-08-24T03:20:13;20.90;90.90
8475;DHT22;4274;52.012;8.448;2022-08-24T03:22:39;20.90;90.90
8475;DHT22;4274;52.012;8.448;2022-08-24T03:25:05;20.90;91.00
8475;DHT22;4274;52.012;8.448;2022-08-24T03:27:31;20.90;91.00
8475;DHT22;4274;52.012;8.448;2022-08-24T03:29:57;20.90;91.00
8475;DHT22;4274;52.012;8.448;2022-08-24T03:32:23;20.90;91.00
8475;DHT22;4274;52.012;8.448;2022-08-24T03:34:48;20.90;91.10
8475;DHT22;4274;52.012;8.448;2022-08-24T03:37:14;20.80;91.10
8475;DHT22;4274;52.012;8.448;2022-08-24T03:39:41;20.80;91.10
8475;DHT22;4274;52.012;8.448;2022-08-24T03:42:06;20.80;91.10
8475;DHT22;4274;52.012;8.448;2022-08-24T03:44:32;20.80;91.10
8475;DHT22;4274;52.012;8.448;2022-08-24T03:46:58;20.80;91.10
8475;DHT22;4274;52.012;8.448;2022-08-24T03:49:23;20.80;91.20
8475;DHT22;4274;52.012;8.448;2022-08-24T03:51:49;20.80;91.30
8475;DHT22;4274;52.012;8.448;2022-08-24T03:54:16;20.80;91.20
8475;DHT22;4274;52.012;8.448;2022-08-24T03:56:41;20.80;91.20
8475;DHT22;4274;52.012;8.448;2022-08-24T03:59:08;20.80;91.30
8475;DHT22;4274;52.012;8.448;2022-08-24T04:01:35;20.80;91.50
8475;DHT22;4274;52.012;8.448;2022-08-24T04:04:01;20.70;91.30
8475;DHT22;4274;52.012;8.448;2022-08-24T04:06:27;20.70;91.40
8475;DHT22;4274;52.012;8.448;2022-08-24T04:08:54;20.60;91.40
8475;DHT22;4274;52.012;8.448;2022-08-24T04:11:22;20.60;91.50
8475;DHT22;4274;52.012;8.448;2022-08-24T04:13:51;20.60;91.60
8475;DHT22;4274;52.012;8.448;2022-08-24T04:16:19;20.60;91.60
8475;DHT22;4274;52.012;8.448;2022-08-24T04:18:45;20.60;91.70
8475;DHT22;4274;52.012;8.448;2022-08-24T04:21:22;20.60;91.70
8475;DHT22;4274;52.012;8.448;2022-08-24T04:23:50;20.50;91.60
8475;DHT22;4274;52.012;8.448;2022-08-24T04:26:21;20.50;91.70
8475;DHT22;4274;52.012;8.448;2022-08-24T04:28:47;20.50;91.70
8475;DHT22;4274;52.012;8.448;2022-08-24T04:31:13;20.50;91.80
8475;DHT22;4274;52.012;8.448;2022-08-24T04:33:43;20.50;91.80
8475;DHT22;4274;52.012;8.448;2022-08-24T04:36:10;20.50;91.90
8475;DHT22;4274;52.012;8.448;2022-08-24T04:38:36;20.50;91.90
8475;DHT22;4274;52.012;8.448;2022-08-24T04:41:07;20.50;92.20
8475;DHT22;4274;52.012;8.448;2022-08-24T04:43:34;20.50;91.90
8475;DHT22;4274;52.012;8.448;2022-08-24T04:46:03;20.50;92.00
8475;DHT22;4274;52.012;8.448;2022-08-24T04:48:29;20.50;92.00
8475;DHT22;4274;52.012;8.448;2022-08-24T04:51:04;20.50;92.10
8475;DHT22;4274;52.012;8.448;2022-08-24T04:53:30;20.50;92.10
8475;DHT22;4274;52.012;8.448;2022-08-24T04:55:56;20.50;92.10
8475;DHT22;4274;52.012;8.448;2022-08-24T04:58:22;20.50;92.20
8475;DHT22;4274;52.012;8.448;2022-08-24T05:00:48;20.50;92.20
8475;DHT22;4274;52.012;8.448;2022-08-24T05:03:13;20.50;92.20
8475;DHT22;4274;52.012;8.448;2022-08-24T05:05:45;20.50;92.20
8475;DHT22;4274;52.012;8.448;2022-08-24T05:08:12;20.50;92.30
8475;DHT22;4274;52.012;8.448;2022-08-24T05:10:47;20.50;92.30
8475;DHT22;4274;52.012;8.448;2022-08-24T05:13:14;20.50;92.30
8475;DHT22;4274;52.012;8.448;2022-08-24T05:15:45;20.50;92.40
8475;DHT22;4274;52.012;8.448;2022-08-24T05:18:11;20.60;92.40
8475;DHT22;4274;52.012;8.448;2022-08-24T05:20:42;20.60;92.50
8475;DHT22;4274;52.012;8.448;2022-08-24T05:23:08;20.60;92.50
8475;DHT22;4274;52.012;8.448;2022-08-24T05:25:34;20.60;92.50
8475;DHT22;4274;52.012;8.448;2022-08-24T05:27:59;20.60;92.40
8475;DHT22;4274;52.012;8.448;2022-08-24T05:30:25;20.70;92.50
8475;DHT22;4274;52.012;8.448;2022-08-24T05:32:51;20.70;92.50
8475;DHT22;4274;52.012;8.448;2022-08-24T05:35:16;20.70;92.60
8475;DHT22;4274;52.012;8.448;2022-08-24T05:37:42;20.80;92.60
8475;DHT22;4274;52.012;8.448;2022-08-24T05:40:11;20.80;92.60
8475;DHT22;4274;52.012;8.448;2022-08-24T05:42:38;20.90;92.60
8475;DHT22;4274;52.012;8.448;2022-08-24T05:45:04;20.90;92.60
8475;DHT22;4274;52.012;8.448;2022-08-24T05:47:32;21.00;92.60
8475;DHT22;4274;52.012;8.448;2022-08-24T05:49:59;21.00;92.60
8475;DHT22;4274;52.012;8.448;2022-08-24T05:52:26;21.10;92.70
8475;DHT22;4274;52.012;8.448;2022-08-24T05:54:54;21.20;92.60
8475;DHT22;4274;52.012;8.448;2022-08-24T05:57:21;21.20;92.60
8475;DHT22;4274;52.012;8.448;2022-08-24T05:59:46;21.30;92.50
8475;DHT22;4274;52.012;8.448;2022-08-24T06:02:12;21.40;92.50
8475;DHT22;4274;52.012;8.448;2022-08-24T06:04:38;21.50;92.40
8475;DHT22;4274;52.012;8.448;2022-08-24T06:07:04;21.60;92.40
8475;DHT22;4274;52.012;8.448;2022-08-24T06:09:30;21.70;92.30
8475;DHT22;4274;52.012;8.448;2022-08-24T06:11:56;21.90;92.40
8475;DHT22;4274;52.012;8.448;2022-08-24T06:14:21;22.00;92.40
8475;DHT22;4274;52.012;8.448;2022-08-24T06:16:47;22.00;92.10
8475;DHT22;4274;52.012;8.448;2022-08-24T06:19:16;22.00;91.90
8475;DHT22;4274;52.012;8.448;2022-08-24T06:21:42;22.20;92.10
8475;DHT22;4274;52.012;8.448;2022-08-24T06:24:08;22.40;92.40
8475;DHT22;4274;52.012;8.448;2022-08-24T06:26:34;22.50;91.90
8475;DHT22;4274;52.012;8.448;2022-08-24T06:29:19;22.70;91.80
8475;DHT22;4274;52.012;8.448;2022-08-24T06:31:47;22.90;91.60
8475;DHT22;4274;52.012;8.448;2022-08-24T06:34:16;23.10;91.90
8475;DHT22;4274;52.012;8.448;2022-08-24T06:36:42;23.20;92.10
8475;DHT22;4274;52.012;8.448;2022-08-24T06:39:08;23.40;91.40
8475;DHT22;4274;52.012;8.448;2022-08-24T06:41:35;23.50;91.00
8475;DHT22;4274;52.012;8.448;2022-08-24T06:44:00;23.70;90.90
8475;DHT22;4274;52.012;8.448;2022-08-24T06:46:27;23.70;90.80
8475;DHT22;4274;52.012;8.448;2022-08-24T06:48:53;23.80;91.20
8475;DHT22;4274;52.012;8.448;2022-08-24T06:51:20;23.90;90.80
8475;DHT22;4274;52.012;8.448;2022-08-24T06:53:47;24.00;90.60
8475;DHT22;4274;52.012;8.448;2022-08-24T06:56:14;24.00;90.70
8475;DHT22;4274;52.012;8.448;2022-08-24T06:58:41;24.10;90.40
8475;DHT22;4274;52.012;8.448;2022-08-24T07:01:09;24.20;90.40
8475;DHT22;4274;52.012;8.448;2022-08-24T07:03:35;24.30;90.30
8475;DHT22;4274;52.012;8.448;2022-08-24T07:06:01;24.40;90.30
8475;DHT22;4274;52.012;8.448;2022-08-24T07:08:27;24.40;90.20
8475;DHT22;4274;52.012;8.448;2022-08-24T07:10:54;24.40;90.10
8475;DHT22;4274;52.012;8.448;2022-08-24T07:13:20;24.50;89.60
8475;DHT22;4274;52.012;8.448;2022-08-24T07:15:45;24.50;90.10
8475;DHT22;4274;52.012;8.448;2022-08-24T07:18:15;24.50;90.20
8475;DHT22;4274;52.012;8.448;2022-08-24T07:20:42;24.60;90.30
8475;DHT22;4274;52.012;8.448;2022-08-24T07:23:08;24.70;90.50
8475;DHT22;4274;52.012;8.448;2022-08-24T07:25:35;24.80;90.20
8475;DHT22;4274;52.012;8.448;2022-08-24T07:28:01;24.90;90.90
8475;DHT22;4274;52.012;8.448;2022-08-24T07:30:27;25.00;90.30
8475;DHT22;4274;52.012;8.448;2022-08-24T07:32:55;25.00;89.90
8475;DHT22;4274;52.012;8.448;2022-08-24T07:35:27;25.10;89.70
8475;DHT22;4274;52.012;8.448;2022-08-24T07:37:54;25.30;88.90
8475;DHT22;4274;52.012;8.448;2022-08-24T07:40:21;25.50;88.80
8475;DHT22;4274;52.012;8.448;2022-08-24T07:42:48;25.50;88.40
8475;DHT22;4274;52.012;8.448;2022-08-24T07:45:14;25.60;89.30
8475;DHT22;4274;52.012;8.448;2022-08-24T07:47:40;25.70;88.60
8475;DHT22;4274;52.012;8.448;2022-08-24T07:50:06;25.90;88.00
8475;DHT22;4274;52.012;8.448;2022-08-24T07:52:33;26.00;87.90
8475;DHT22;4274;52.012;8.448;2022-08-24T07:54:58;26.10;89.00
8475;DHT22;4274;52.012;8.448;2022-08-24T07:57:24;26.30;88.60
8475;DHT22;4274;52.012;8.448;2022-08-24T07:59:50;26.40;86.80
8475;DHT22;4274;52.012;8.448;2022-08-24T08:02:15;26.50;87.10
8475;DHT22;4274;52.012;8.448;2022-08-24T08:04:41;26.60;86.50
8475;DHT22;4274;52.012;8.448;2022-08-24T08:07:07;26.70;85.50
8475;DHT22;4274;52.012;8.448;2022-08-24T08:09:36;26.90;85.80
8475;DHT22;4274;52.012;8.448;2022-08-24T08:12:02;27.00;85.20
8475;DHT22;4274;52.012;8.448;2022-08-24T08:14:28;27.00;84.60
8475;DHT22;4274;52.012;8.448;2022-08-24T08:16:53;27.10;85.00
8475;DHT22;4274;52.012;8.448;2022-08-24T08:19:19;27.10;84.10
8475;DHT22;4274;52.012;8.448;2022-08-24T08:21:47;27.20;84.70
8475;DHT22;4274;52.012;8.448;2022-08-24T08:24:32;27.20;84.10
8475;DHT22;4274;52.012;8.448;2022-08-24T08:26:58;27.40;83.70
8475;DHT22;4274;52.012;8.448;2022-08-24T08:29:25;27.60;82.70
8475;DHT22;4274;52.012;8.448;2022-08-24T08:31:52;27.80;82.90
8475;DHT22;4274;52.012;8.448;2022-08-24T08:34:17;28.00;82.90
8475;DHT22;4274;52.012;8.448;2022-08-24T08:36:44;28.10;82.30
8475;DHT22;4274;52.012;8.448;2022-08-24T08:39:11;28.20;82.60
8475;DHT22;4274;52.012;8.448;2022-08-24T08:50:18;29.30;79.40
8475;DHT22;4274;52.012;8.448;2022-08-24T08:56:13;30.00;79.20
8475;DHT22;4274;52.012;8.448;2022-08-24T09:10:13;32.60;77.30
8475;DHT22;4274;52.012;8.448;2022-08-24T09:18:30;34.20;75.40
8475;DHT22;4274;52.012;8.448;2022-08-24T09:21:12;34.50;70.70
8475;DHT22;4274;52.012;8.448;2022-08-24T09:26:31;35.30;71.60
8475;DHT22;4274;52.012;8.448;2022-08-24T09:29:16;35.60;71.00
8475;DHT22;4274;52.012;8.448;2022-08-24T09:32:02;35.80;69.30
8475;DHT22;4274;52.012;8.448;2022-08-24T09:35:00;36.00;70.50
8475;DHT22;4274;52.012;8.448;2022-08-24T09:37:31;36.40;70.10
8475;DHT22;4274;52.012;8.448;2022-08-24T10:08:56;35.70;68.40
8475;DHT22;4274;52.012;8.448;2022-08-24T10:11:29;35.40;67.80
8475;DHT22;4274;52.012;8.448;2022-08-24T10:19:42;36.10;71.50
8475;DHT22;4274;52.012;8.448;2022-08-24T10:22:14;37.10;69.90
8475;DHT22;4274;52.012;8.448;2022-08-24T10:24:52;38.00;68.10
8475;DHT22;4274;52.012;8.448;2022-08-24T10:27:51;38.50;65.40
8475;DHT22;4274;52.012;8.448;2022-08-24T10:33:26;39.50;65.00
8475;DHT22;4274;52.012;8.448;2022-08-24T10:48:29;40.70;62.00
8475;DHT22;4274;52.012;8.448;2022-08-24T10:53:51;39.70;60.80
8475;DHT22;4274;52.012;8.448;2022-08-24T10:56:34;39.20;61.10
8475;DHT22;4274;52.012;8.448;2022-08-24T11:01:36;38.70;63.80
8475;DHT22;4274;52.012;8.448;2022-08-24T11:04:09;38.90;63.90
8475;DHT22;4274;52.012;8.448;2022-08-24T11:06:39;39.30;65.30
8475;DHT22;4274;52.012;8.448;2022-08-24T11:09:14;39.70;63.10
8475;DHT22;4274;52.012;8.448;2022-08-24T11:11:43;39.40;59.80
8475;DHT22;4274;52.012;8.448;2022-08-24T11:14:23;38.80;60.20
8475;DHT22;4274;52.012;8.448;2022-08-24T11:16:50;38.60;65.80
8475;DHT22;4274;52.012;8.448;2022-08-24T11:19:34;39.10;65.60
8475;DHT22;4274;52.012;8.448;2022-08-24T11:22:05;39.80;59.60
8475;DHT22;4274;52.012;8.448;2022-08-24T11:24:47;40.10;60.90
8475;DHT22;4274;52.012;8.448;2022-08-24T11:32:40;40.20;58.20
8475;DHT22;4274;52.012;8.448;2022-08-24T11:37:54;39.40;62.10
8475;DHT22;4274;52.012;8.448;2022-08-24T11:40:26;39.10;64.40
8475;DHT22;4274;52.012;8.448;2022-08-24T11:43:18;39.50;62.90
8475;DHT22;4274;52.012;8.448;2022-08-24T11:48:52;38.80;59.40
8475;DHT22;4274;52.012;8.448;2022-08-24T11:51:36;38.20;60.10
8475;DHT22;4274;52.012;8.448;2022-08-24T11:54:13;38.00;66.30
8475;DHT22;4274;52.012;8.448;2022-08-24T12:02:31;38.30;59.70
8475;DHT22;4274;52.012;8.448;2022-08-24T12:10:29;37.60;63.40
8475;DHT22;4274;52.012;8.448;2022-08-24T12:13:16;38.00;61.70
8475;DHT22;4274;52.012;8.448;2022-08-24T12:15:46;37.60;61.30
8475;DHT22;4274;52.012;8.448;2022-08-24T12:20:48;36.50;61.70
8475;DHT22;4274;52.012;8.448;2022-08-24T12:23:40;36.80;63.40
8475;DHT22;4274;52.012;8.448;2022-08-24T12:29:03;38.20;61.00
8475;DHT22;4274;52.012;8.448;2022-08-24T12:34:10;38.00;63.80
8475;DHT22;4274;52.012;8.448;2022-08-24T12:36:46;37.80;61.60
8475;DHT22;4274;52.012;8.448;2022-08-24T12:39:20;38.10;60.60
8475;DHT22;4274;52.012;8.448;2022-08-24T12:42:07;38.40;64.90
8475;DHT22;4274;52.012;8.448;2022-08-24T12:44:46;39.00;63.40
8475;DHT22;4274;52.012;8.448;2022-08-24T12:47:28;39.40;59.20
8475;DHT22;4274;52.012;8.448;2022-08-24T12:50:04;39.50;61.80
8475;DHT22;4274;52.012;8.448;2022-08-24T12:55:54;39.70;60.50
8475;DHT22;4274;52.012;8.448;2022-08-24T12:58:50;39.70;58.40
8475;DHT22;4274;52.012;8.448;2022-08-24T13:01:19;39.50;60.00
8475;DHT22;4274;52.012;8.448;2022-08-24T13:04:01;39.30;59.50
8475;DHT22;4274;52.012;8.448;2022-08-24T13:06:42;39.40;59.70
8475;DHT22;4274;52.012;8.448;2022-08-24T13:09:30;39.70;61.40
8475;DHT22;4274;52.012;8.448;2022-08-24T13:11:58;39.90;60.90
8475;DHT22;4274;52.012;8.448;2022-08-24T13:14:27;40.00;60.70
8475;DHT22;4274;52.012;8.448;2022-08-24T13:21:59;39.20;57.00
8475;DHT22;4274;52.012;8.448;2022-08-24T13:29:44;38.00;59.60
8475;DHT22;4274;52.012;8.448;2022-08-24T13:32:38;38.00;61.10
8475;DHT22;4274;52.012;8.448;2022-08-24T13:44:28;35.50;61.40
8475;DHT22;4274;52.012;8.448;2022-08-24T13:47:27;35.40;59.60
8475;DHT22;4274;52.012;8.448;2022-08-24T13:50:04;35.20;65.30
8475;DHT22;4274;52.012;8.448;2022-08-24T13:52:45;35.20;63.80
8475;DHT22;4274;52.012;8.448;2022-08-24T13:55:30;35.20;61.50
8475;DHT22;4274;52.012;8.448;2022-08-24T13:58:09;35.10;60.40
8475;DHT22;4274;52.012;8.448;2022-08-24T14:01:00;34.90;60.60
8475;DHT22;4274;52.012;8.448;2022-08-24T14:12:17;32.50;63.10
8475;DHT22;4274;52.012;8.448;2022-08-24T14:15:00;32.20;65.00
8475;DHT22;4274;52.012;8.448;2022-08-24T14:23:48;31.80;64.10
8475;DHT22;4274;52.012;8.448;2022-08-24T14:37:43;31.30;65.50
8475;DHT22;4274;52.012;8.448;2022-08-24T14:40:25;31.10;65.10
8475;DHT22;4274;52.012;8.448;2022-08-24T14:43:13;31.00;66.60
8475;DHT22;4274;52.012;8.448;2022-08-24T14:49:16;30.80;65.60
8475;DHT22;4274;52.012;8.448;2022-08-24T14:57:18;30.70;65.80
8475;DHT22;4274;52.012;8.448;2022-08-24T14:59:59;30.50;66.00
8475;DHT22;4274;52.012;8.448;2022-08-24T15:05:28;30.50;65.80
8475;DHT22;4274;52.012;8.448;2022-08-24T15:08:06;30.50;65.80
8475;DHT22;4274;52.012;8.448;2022-08-24T15:11:00;30.40;66.30
8475;DHT22;4274;52.012;8.448;2022-08-24T15:16:04;30.30;66.90
8475;DHT22;4274;52.012;8.448;2022-08-24T15:18:44;30.30;66.40
8475;DHT22;4274;52.012;8.448;2022-08-24T15:24:04;30.40;66.20
8475;DHT22;4274;52.012;8.448;2022-08-24T15:29:17;30.40;65.50
8475;DHT22;4274;52.012;8.448;2022-08-24T15:32:07;30.30;66.20
8475;DHT22;4274;52.012;8.448;2022-08-24T15:37:11;30.50;65.50
8475;DHT22;4274;52.012;8.448;2022-08-24T15:39:37;30.50;65.70
8475;DHT22;4274;52.012;8.448;2022-08-24T15:42:12;30.50;65.60
8475;DHT22;4274;52.012;8.448;2022-08-24T15:44:40;30.60;65.30
8475;DHT22;4274;52.012;8.448;2022-08-24T15:52:42;30.60;66.30
8475;DHT22;4274;52.012;8.448;2022-08-24T15:55:38;30.70;66.80
8475;DHT22;4274;52.012;8.448;2022-08-24T15:58:33;30.70;65.20
8475;DHT22;4274;52.012;8.448;2022-08-24T16:01:22;30.60;65.00
8475;DHT22;4274;52.012;8.448;2022-08-24T16:04:10;30.60;65.60
8475;DHT22;4274;52.012;8.448;2022-08-24T16:06:39;30.60;65.80
8475;DHT22;4274;52.012;8.448;2022-08-24T16:11:41;30.60;65.60
8475;DHT22;4274;52.012;8.448;2022-08-24T16:14:13;30.60;66.40
8475;DHT22;4274;52.012;8.448;2022-08-24T16:16:44;30.50;66.10
8475;DHT22;4274;52.012;8.448;2022-08-24T16:19:23;30.50;66.20
8475;DHT22;4274;52.012;8.448;2022-08-24T16:32:15;30.40;66.80
8475;DHT22;4274;52.012;8.448;2022-08-24T16:34:46;30.40;67.70
8475;DHT22;4274;52.012;8.448;2022-08-24T16:37:14;30.30;68.10
8475;DHT22;4274;52.012;8.448;2022-08-24T16:39:40;30.20;68.00
8475;DHT22;4274;52.012;8.448;2022-08-24T16:42:11;30.20;67.10
8475;DHT22;4274;52.012;8.448;2022-08-24T16:44:41;30.20;66.50
8475;DHT22;4274;52.012;8.448;2022-08-24T16:47:08;30.20;66.10
8475;DHT22;4274;52.012;8.448;2022-08-24T16:49:35;30.20;65.30
8475;DHT22;4274;52.012;8.448;2022-08-24T16:52:01;30.30;65.40
8475;DHT22;4274;52.012;8.448;2022-08-24T16:54:29;30.30;65.30
8475;DHT22;4274;52.012;8.448;2022-08-24T16:56:57;30.30;65.50
8475;DHT22;4274;52.012;8.448;2022-08-24T16:59:26;30.30;65.70
8475;DHT22;4274;52.012;8.448;2022-08-24T17:01:52;30.20;65.80
8475;DHT22;4274;52.012;8.448;2022-08-24T17:04:18;30.20;65.90
8475;DHT22;4274;52.012;8.448;2022-08-24T17:06:45;30.10;65.80
8475;DHT22;4274;52.012;8.448;2022-08-24T17:09:12;30.10;66.00
8475;DHT22;4274;52.012;8.448;2022-08-24T17:11:38;30.00;66.60
8475;DHT22;4274;52.012;8.448;2022-08-24T17:14:03;30.00;66.50
8475;DHT22;4274;52.012;8.448;2022-08-24T17:16:30;29.90;66.90
8475;DHT22;4274;52.012;8.448;2022-08-24T17:18:57;29.90;67.30
8475;DHT22;4274;52.012;8.448;2022-08-24T17:21:23;29.90;66.80
8475;DHT22;4274;52.012;8.448;2022-08-24T17:23:49;29.90;66.00
8475;DHT22;4274;52.012;8.448;2022-08-24T17:26:15;29.80;66.30
8475;DHT22;4274;52.012;8.448;2022-08-24T17:28:43;29.90;66.50
8475;DHT22;4274;52.012;8.448;2022-08-24T17:31:12;29.90;66.30
8475;DHT22;4274;52.012;8.448;2022-08-24T17:33:38;29.90;66.90
8475;DHT22;4274;52.012;8.448;2022-08-24T17:36:05;29.80;66.50
8475;DHT22;4274;52.012;8.448;2022-08-24T17:38:33;29.80;67.20
8475;DHT22;4274;52.012;8.448;2022-08-24T17:41:01;29.70;66.60
8475;DHT22;4274;52.012;8.448;2022-08-24T17:43:27;29.70;67.00
8475;DHT22;4274;52.012;8.448;2022-08-24T17:45:52;29.60;67.10
8475;DHT22;4274;52.012;8.448;2022-08-24T17:48:22;29.50;67.40
8475;DHT22;4274;52.012;8.448;2022-08-24T17:50:48;29.40;67.90
8475;DHT22;4274;52.012;8.448;2022-08-24T17:53:14;29.30;68.10
8475;DHT22;4274;52.012;8.448;2022-08-24T17:55:39;29.20;68.10
8475;DHT22;4274;52.012;8.448;2022-08-24T17:58:05;29.20;68.50
8475;DHT22;4274;52.012;8.448;2022-08-24T18:00:30;29.10;68.60
8475;DHT22;4274;52.012;8.448;2022-08-24T18:02:56;28.90;68.80
8475;DHT22;4274;52.012;8.448;2022-08-24T18:05:22;28.90;69.00
8475;DHT22;4274;52.012;8.448;2022-08-24T18:07:51;28.80;69.50
8475;DHT22;4274;52.012;8.448;2022-08-24T18:10:21;28.70;69.40
8475;DHT22;4274;52.012;8.448;2022-08-24T18:12:48;28.60;69.40
8475;DHT22;4274;52.012;8.448;2022-08-24T18:15:14;28.60;69.30
8475;DHT22;4274;52.012;8.448;2022-08-24T18:17:48;28.50;69.60
8475;DHT22;4274;52.012;8.448;2022-08-24T18:20:15;28.50;69.60
8475;DHT22;4274;52.012;8.448;2022-08-24T18:22:45;28.40;69.80
8475;DHT22;4274;52.012;8.448;2022-08-24T18:25:13;28.40;69.70
8475;DHT22;4274;52.012;8.448;2022-08-24T18:27:40;28.30;69.90
8475;DHT22;4274;52.012;8.448;2022-08-24T18:30:08;28.30;70.00
8475;DHT22;4274;52.012;8.448;2022-08-24T18:32:38;28.20;69.70
8475;DHT22;4274;52.012;8.448;2022-08-24T18:35:04;28.20;69.90
8475;DHT22;4274;52.012;8.448;2022-08-24T18:37:30;28.10;69.50
8475;DHT22;4274;52.012;8.448;2022-08-24T18:39:55;28.10;69.40
8475;DHT22;4274;52.012;8.448;2022-08-24T18:42:22;28.00;69.20
8475;DHT22;4274;52.012;8.448;2022-08-24T18:44:49;28.00;69.30
8475;DHT22;4274;52.012;8.448;2022-08-24T18:47:15;27.90;69.00
8475;DHT22;4274;52.012;8.448;2022-08-24T18:49:41;27.90;69.00
8475;DHT22;4274;52.012;8.448;2022-08-24T18:52:08;27.90;69.00
8475;DHT22;4274;52.012;8.448;2022-08-24T18:54:36;27.80;68.90
8475;DHT22;4274;52.012;8.448;2022-08-24T18:57:04;27.70;69.00
8475;DHT22;4274;52.012;8.448;2022-08-24T18:59:31;27.70;69.00
8475;DHT22;4274;52.012;8.448;2022-08-24T19:02:07;27.60;69.00
8475;DHT22;4274;52.012;8.448;2022-08-24T19:04:52;27.60;69.10
8475;DHT22;4274;52.012;8.448;2022-08-24T19:07:20;27.50;68.90
8475;DHT22;4274;52.012;8.448;2022-08-24T19:09:46;27.50;69.10
8475;DHT22;4274;52.012;8.448;2022-08-24T19:12:11;27.40;69.30
8475;DHT22;4274;52.012;8.448;2022-08-24T19:14:37;27.30;69.30
8475;DHT22;4274;52.012;8.448;2022-08-24T19:17:04;27.20;69.40
8475;DHT22;4274;52.012;8.448;2022-08-24T19:19:31;27.10;69.50
8475;DHT22;4274;52.012;8.448;2022-08-24T19:21:58;27.10;69.40
8475;DHT22;4274;52.012;8.448;2022-08-24T19:24:25;27.10;69.50
8475;DHT22;4274;52.012;8.448;2022-08-24T19:26:51;27.00;69.60
8475;DHT22;4274;52.012;8.448;2022-08-24T19:29:17;26.90;69.80
8475;DHT22;4274;52.012;8.448;2022-08-24T19:31:44;26.90;69.80
8475;DHT22;4274;52.012;8.448;2022-08-24T19:34:10;26.80;69.80
8475;DHT22;4274;52.012;8.448;2022-08-24T19:36:37;26.80;69.90
8475;DHT22;4274;52.012;8.448;2022-08-24T19:39:03;26.70;69.90
8475;DHT22;4274;52.012;8.448;2022-08-24T19:41:28;26.70;70.00
8475;DHT22;4274;52.012;8.448;2022-08-24T19:43:55;26.60;70.20
8475;DHT22;4274;52.012;8.448;2022-08-24T19:46:40;26.60;70.20
8475;DHT22;4274;52.012;8.448;2022-08-24T19:49:07;26.50;70.30
8475;DHT22;4274;52.012;8.448;2022-08-24T19:51:34;26.50;70.50
8475;DHT22;4274;52.012;8.448;2022-08-24T19:54:00;26.40;70.50